sensor_id;sensor_type;location;lat;lon;timestamp;P1;durP1;ratioP1;P2;durP2;ratioP2
9665;SDS011;4871;52.004;5.924;2023-05-10T00:00:06;10.40;;;8.70;;
9665;SDS011;4871;52.004;5.924;2023-05-10T00:01:00;10.40;;;8.70;;
9665;SDS011;4871;52.004;5.924;2023-05-10T00:02:03;10.40;;;8.70;;
9665;SDS011;4871;52.004;5.924;2023-05-10T00:03:00;10.40;;;8.70;;
9665;SDS011;4871;52.004;5.924;2023-05-10T00:04:04;10.40;;;8.70;;
9665;SDS011;4871;52.004;5.924;2023-05-10T00:05:00;10.40;;;8.70;;
9665;SDS011;4871;52.004;5.924;2023-05-10T00:06:04;10.40;;;8.70;;
9665;SDS011;4871;52.004;5.924;2023-05-10T00:07:00;10.40;;;8.70;;
9665;SDS011;4871;52.004;5.924;2023-05-10T00:08:04;10.40;;;8.70;;
9665;SDS011;4871;52.004;5.924;2023-05-10T00:09:00;10.40;;;8.70;;
9665;SDS011;4871;52.004;5.924;2023-05-10T00:10:04;10.40;;;8.70;;
9665;SDS011;4871;52.004;5.924;2023-05-10T00:11:00;10.40;;;8.70;;
9665;SDS011;4871;52.004;5.924;2023-05-10T00:12:04;10.40;;;8.70;;
9665;SDS011;4871;52.004;5.924;2023-05-10T00:13:00;10.40;;;8.70;;
9665;SDS011;4871;52.004;5.924;2023-05-10T00:14:04;10.40;;;8.70;;
9665;SDS011;4871;52.004;5.924;2023-05-10T00:15:00;10.40;;;8.70;;
9665;SDS011;4871;52.004;5.924;2023-05-10T00:16:03;10.40;;;8.70;;
9665;SDS011;4871;52.004;5.924;2023-05-10T00:17:00;10.40;;;8.70;;
9665;SDS011;4871;52.004;5.924;2023-05-10T00:18:03;14.10;;;10.20;;
9665;SDS011;4871;52.004;5.924;2023-05-10T00:19:00;14.10;;;10.20;;
9665;SDS011;4871;52.004;5.924;2023-05-10T00:20:06;14.10;;;10.20;;
9665;SDS011;4871;52.004;5.924;2023-05-10T00:21:00;14.10;;;10.20;;
9665;SDS011;4871;52.004;5.924;2023-05-10T00:22:04;14.10;;;10.20;;
9665;SDS011;4871;52.004;5.924;2023-05-10T00:23:00;14.10;;;10.20;;
9665;SDS011;4871;52.004;5.924;2023-05-10T00:24:03;14.10;;;10.20;;
9665;SDS011;4871;52.004;5.924;2023-05-10T00:25:00;14.10;;;10.20;;
9665;SDS011;4871;52.004;5.924;2023-05-10T00:26:03;14.10;;;10.20;;
9665;SDS011;4871;52.004;5.924;2023-05-10T00:27:00;14.10;;;10.20;;
9665;SDS011;4871;52.004;5.924;2023-05-10T00:28:05;14.10;;;10.20;;
9665;SDS011;4871;52.004;5.924;2023-05-10T00:29:00;14.10;;;10.20;;
9665;SDS011;4871;52.004;5.924;2023-05-10T00:30:04;14.10;;;10.20;;
9665;SDS011;4871;52.004;5.924;2023-05-10T00:31:00;14.10;;;10.20;;
9665;SDS011;4871;52.004;5.924;2023-05-10T00:32:05;14.10;;;10.20;;
9665;SDS011;4871;52.004;5.924;2023-05-10T00:33:00;14.10;;;10.20;;
9665;SDS011;4871;52.004;5.924;2023-05-10T00:34:03;14.10;;;10.20;;
9665;SDS011;4871;52.004;5.924;2023-05-10T00:35:00;14.10;;;10.20;;
9665;SDS011;4871;52.004;5.924;2023-05-10T00:36:07;14.10;;;10.20;;
9665;SDS011;4871;52.004;5.924;2023-05-10T00:37:00;14.10;;;10.20;;
9665;SDS011;4871;52.004;5.924;2023-05-10T00:38:04;14.10;;;10.20;;
9665;SDS011;4871;52.004;5.924;2023-05-10T00:39:00;14.10;;;10.20;;
9665;SDS011;4871;52.004;5.924;2023-05-10T00:40:04;14.10;;;10.20;;
9665;SDS011;4871;52.004;5.924;2023-05-10T00:41:00;14.10;;;10.20;;
9665;SDS011;4871;52.004;5.924;2023-05-10T00:42:04;14.10;;;10.20;;
9665;SDS011;4871;52.004;5.924;2023-05-10T00:43:01;14.10;;;10.20;;
9665;SDS011;4871;52.004;5.924;2023-05-10T00:44:05;14.10;;;10.20;;
9665;SDS011;4871;52.004;5.924;2023-05-10T00:45:00;14.10;;;10.20;;
9665;SDS011;4871;52.004;5.924;2023-05-10T00:46:05;14.10;;;10.20;;
9665;SDS011;4871;52.004;5.924;2023-05-10T00:47:00;14.10;;;10.20;;
9665;SDS011;4871;52.004;5.924;2023-05-10T00:48:03;20.20;;;13.40;;
9665;SDS011;4871;52.004;5.924;2023-05-10T00:49:00;20.20;;;13.40;;
9665;SDS011;4871;52.004;5.924;2023-05-10T00:50:06;20.20;;;13.40;;
9665;SDS011;4871;52.004;5.924;2023-05-10T00:51:00;20.20;;;13.40;;
9665;SDS011;4871;52.004;5.924;2023-05-10T00:52:03;20.20;;;13.40;;
9665;SDS011;4871;52.004;5.924;2023-05-10T00:53:00;20.20;;;13.40;;
9665;SDS011;4871;52.004;5.924;2023-05-10T00:54:05;20.20;;;13.40;;
9665;SDS011;4871;52.004;5.924;2023-05-10T00:55:00;20.20;;;13.40;;
9665;SDS011;4871;52.004;5.924;2023-05-10T00:56:05;20.20;;;13.40;;
9665;SDS011;4871;52.004;5.924;2023-05-10T00:57:00;20.20;;;13.40;;
9665;SDS011;4871;52.004;5.924;2023-05-10T00:58:03;20.20;;;13.40;;
9665;SDS011;4871;52.004;5.924;2023-05-10T00:59:00;20.20;;;13.40;;
9665;SDS011;4871;52.004;5.924;2023-05-10T01:00:04;20.20;;;13.40;;
9665;SDS011;4871;52.004;5.924;2023-05-10T01:01:00;20.20;;;13.40;;
9665;SDS011;4871;52.004;5.924;2023-05-10T01:02:04;20.20;;;13.40;;
9665;SDS011;4871;52.004;5.924;2023-05-10T01:03:01;20.20;;;13.40;;
9665;SDS011;4871;52.004;5.924;2023-05-10T01:04:03;20.20;;;13.40;;
9665;SDS011;4871;52.004;5.924;2023-05-10T01:05:00;20.20;;;13.40;;
9665;SDS011;4871;52.004;5.924;2023-05-10T01:06:05;20.20;;;13.40;;
9665;SDS011;4871;52.004;5.924;2023-05-10T01:07:00;20.20;;;13.40;;
9665;SDS011;4871;52.004;5.924;2023-05-10T01:08:03;20.20;;;13.40;;
9665;SDS011;4871;52.004;5.924;2023-05-10T01:09:00;20.20;;;13.40;;
9665;SDS011;4871;52.004;5.924;2023-05-10T01:10:05;20.20;;;13.40;;
9665;SDS011;4871;52.004;5.924;2023-05-10T01:11:00;20.20;;;13.40;;
9665;SDS011;4871;52.004;5.924;2023-05-10T01:12:06;20.20;;;13.40;;
9665;SDS011;4871;52.004;5.924;2023-05-10T01:13:00;20.20;;;13.40;;
9665;SDS011;4871;52.004;5.924;2023-05-10T01:14:05;20.20;;;13.40;;
9665;SDS011;4871;52.004;5.924;2023-05-10T01:15:00;20.20;;;13.40;;
9665;SDS011;4871;52.004;5.924;2023-05-10T01:16:06;20.20;;;13.40;;
9665;SDS011;4871;52.004;5.924;2023-05-10T01:17:00;20.10;;;13.10;;
9665;SDS011;4871;52.004;5.924;2023-05-10T01:18:04;20.10;;;13.10;;
9665;SDS011;4871;52.004;5.924;2023-05-10T01:19:00;20.10;;;13.10;;
9665;SDS011;4871;52.004;5.924;2023-05-10T01:20:08;20.10;;;13.10;;
9665;SDS011;4871;52.004;5.924;2023-05-10T01:21:03;20.10;;;13.10;;
9665;SDS011;4871;52.004;5.924;2023-05-10T01:22:08;20.10;;;13.10;;
9665;SDS011;4871;52.004;5.924;2023-05-10T01:24:11;20.10;;;13.10;;
9665;SDS011;4871;52.004;5.924;2023-05-10T01:26:13;20.10;;;13.10;;
9665;SDS011;4871;52.004;5.924;2023-05-10T01:28:08;20.10;;;13.10;;
9665;SDS011;4871;52.004;5.924;2023-05-10T01:29:09;20.10;;;13.10;;
9665;SDS011;4871;52.004;5.924;2023-05-10T01:30:08;20.10;;;13.10;;
9665;SDS011;4871;52.004;5.924;2023-05-10T01:31:05;20.10;;;13.10;;
9665;SDS011;4871;52.004;5.924;2023-05-10T01:32:09;20.10;;;13.10;;
9665;SDS011;4871;52.004;5.924;2023-05-10T01:33:00;20.10;;;13.10;;
9665;SDS011;4871;52.004;5.924;2023-05-10T01:34:06;20.10;;;13.10;;
9665;SDS011;4871;52.004;5.924;2023-05-10T01:35:00;20.10;;;13.10;;
9665;SDS011;4871;52.004;5.924;2023-05-10T01:36:08;20.10;;;13.10;;
9665;SDS011;4871;52.004;5.924;2023-05-10T01:37:02;20.10;;;13.10;;
9665;SDS011;4871;52.004;5.924;2023-05-10T01:38:07;20.10;;;13.10;;
9665;SDS011;4871;52.004;5.924;2023-05-10T01:39:01;20.10;;;13.10;;
9665;SDS011;4871;52.004;5.924;2023-05-10T01:40:07;20.10;;;13.10;;
9665;SDS011;4871;52.004;5.924;2023-05-10T01:41:03;20.10;;;13.10;;
9665;SDS011;4871;52.004;5.924;2023-05-10T01:42:03;20.10;;;13.10;;
9665;SDS011;4871;52.004;5.924;2023-05-10T01:43:01;20.10;;;13.10;;
9665;SDS011;4871;52.004;5.924;2023-05-10T01:44:09;20.10;;;13.10;;
9665;SDS011;4871;52.004;5.924;2023-05-10T01:45:02;20.10;;;13.10;;
9665;SDS011;4871;52.004;5.924;2023-05-10T01:46:10;20.10;;;13.10;;
9665;SDS011;4871;52.004;5.924;2023-05-10T01:47:01;27.90;;;19.10;;
9665;SDS011;4871;52.004;5.924;2023-05-10T01:48:04;27.90;;;19.10;;
9665;SDS011;4871;52.004;5.924;2023-05-10T01:49:00;27.90;;;19.10;;
9665;SDS011;4871;52.004;5.924;2023-05-10T01:50:06;27.90;;;19.10;;
9665;SDS011;4871;52.004;5.924;2023-05-10T01:51:00;27.90;;;19.10;;
9665;SDS011;4871;52.004;5.924;2023-05-10T01:52:06;27.90;;;19.10;;
9665;SDS011;4871;52.004;5.924;2023-05-10T01:53:00;27.90;;;19.10;;
9665;SDS011;4871;52.004;5.924;2023-05-10T01:54:00;27.90;;;19.10;;
9665;SDS011;4871;52.004;5.924;2023-05-10T01:55:05;27.90;;;19.10;;
9665;SDS011;4871;52.004;5.924;2023-05-10T01:56:00;27.90;;;19.10;;
9665;SDS011;4871;52.004;5.924;2023-05-10T01:57:05;27.90;;;19.10;;
9665;SDS011;4871;52.004;5.924;2023-05-10T01:58:02;27.90;;;19.10;;
9665;SDS011;4871;52.004;5.924;2023-05-10T01:59:05;27.90;;;19.10;;
9665;SDS011;4871;52.004;5.924;2023-05-10T02:00:01;27.90;;;19.10;;
9665;SDS011;4871;52.004;5.924;2023-05-10T02:01:06;27.90;;;19.10;;
9665;SDS011;4871;52.004;5.924;2023-05-10T02:02:00;27.90;;;19.10;;
9665;SDS011;4871;52.004;5.924;2023-05-10T02:03:05;27.90;;;19.10;;
9665;SDS011;4871;52.004;5.924;2023-05-10T02:04:00;27.90;;;19.10;;
9665;SDS011;4871;52.004;5.924;2023-05-10T02:05:05;27.90;;;19.10;;
9665;SDS011;4871;52.004;5.924;2023-05-10T02:06:00;27.90;;;19.10;;
9665;SDS011;4871;52.004;5.924;2023-05-10T02:07:03;27.90;;;19.10;;
9665;SDS011;4871;52.004;5.924;2023-05-10T02:08:01;27.90;;;19.10;;
9665;SDS011;4871;52.004;5.924;2023-05-10T02:09:04;27.90;;;19.10;;
9665;SDS011;4871;52.004;5.924;2023-05-10T02:10:00;27.90;;;19.10;;
9665;SDS011;4871;52.004;5.924;2023-05-10T02:11:03;27.90;;;19.10;;
9665;SDS011;4871;52.004;5.924;2023-05-10T02:12:01;27.90;;;19.10;;
9665;SDS011;4871;52.004;5.924;2023-05-10T02:13:06;27.90;;;19.10;;
9665;SDS011;4871;52.004;5.924;2023-05-10T02:14:00;27.90;;;19.10;;
9665;SDS011;4871;52.004;5.924;2023-05-10T02:15:05;27.90;;;19.10;;
9665;SDS011;4871;52.004;5.924;2023-05-10T02:16:00;27.90;;;19.10;;
9665;SDS011;4871;52.004;5.924;2023-05-10T02:17:04;25.20;;;16.90;;
9665;SDS011;4871;52.004;5.924;2023-05-10T02:18:00;25.20;;;16.90;;
9665;SDS011;4871;52.004;5.924;2023-05-10T02:19:04;25.20;;;16.90;;
9665;SDS011;4871;52.004;5.924;2023-05-10T02:20:00;25.20;;;16.90;;
9665;SDS011;4871;52.004;5.924;2023-05-10T02:21:05;25.20;;;16.90;;
9665;SDS011;4871;52.004;5.924;2023-05-10T02:22:00;25.20;;;16.90;;
9665;SDS011;4871;52.004;5.924;2023-05-10T02:23:04;25.20;;;16.90;;
9665;SDS011;4871;52.004;5.924;2023-05-10T02:24:00;25.20;;;16.90;;
9665;SDS011;4871;52.004;5.924;2023-05-10T02:25:04;25.20;;;16.90;;
9665;SDS011;4871;52.004;5.924;2023-05-10T02:26:00;25.20;;;16.90;;
9665;SDS011;4871;52.004;5.924;2023-05-10T02:27:05;25.20;;;16.90;;
9665;SDS011;4871;52.004;5.924;2023-05-10T02:28:01;25.20;;;16.90;;
9665;SDS011;4871;52.004;5.924;2023-05-10T02:29:04;25.20;;;16.90;;
9665;SDS011;4871;52.004;5.924;2023-05-10T02:30:00;25.20;;;16.90;;
9665;SDS011;4871;52.004;5.924;2023-05-10T02:31:05;25.20;;;16.90;;
9665;SDS011;4871;52.004;5.924;2023-05-10T02:32:00;25.20;;;16.90;;
9665;SDS011;4871;52.004;5.924;2023-05-10T02:33:04;25.20;;;16.90;;
9665;SDS011;4871;52.004;5.924;2023-05-10T02:34:00;25.20;;;16.90;;
9665;SDS011;4871;52.004;5.924;2023-05-10T02:35:04;25.20;;;16.90;;
9665;SDS011;4871;52.004;5.924;2023-05-10T02:36:00;25.20;;;16.90;;
9665;SDS011;4871;52.004;5.924;2023-05-10T02:37:03;25.20;;;16.90;;
9665;SDS011;4871;52.004;5.924;2023-05-10T02:38:00;25.20;;;16.90;;
9665;SDS011;4871;52.004;5.924;2023-05-10T02:39:09;25.20;;;16.90;;
9665;SDS011;4871;52.004;5.924;2023-05-10T02:40:00;25.20;;;16.90;;
9665;SDS011;4871;52.004;5.924;2023-05-10T02:41:04;25.20;;;16.90;;
9665;SDS011;4871;52.004;5.924;2023-05-10T02:42:00;25.20;;;16.90;;
9665;SDS011;4871;52.004;5.924;2023-05-10T02:43:03;25.20;;;16.90;;
9665;SDS011;4871;52.004;5.924;2023-05-10T02:44:00;25.20;;;16.90;;
9665;SDS011;4871;52.004;5.924;2023-05-10T02:45:07;25.20;;;16.90;;
9665;SDS011;4871;52.004;5.924;2023-05-10T02:46:00;25.20;;;16.90;;
9665;SDS011;4871;52.004;5.924;2023-05-10T02:47:05;30.40;;;18.60;;
9665;SDS011;4871;52.004;5.924;2023-05-10T02:48:00;30.40;;;18.60;;
9665;SDS011;4871;52.004;5.924;2023-05-10T02:49:03;30.40;;;18.60;;
9665;SDS011;4871;52.004;5.924;2023-05-10T02:50:00;30.40;;;18.60;;
9665;SDS011;4871;52.004;5.924;2023-05-10T02:51:05;30.40;;;18.60;;
9665;SDS011;4871;52.004;5.924;2023-05-10T02:52:01;30.40;;;18.60;;
9665;SDS011;4871;52.004;5.924;2023-05-10T02:53:06;30.40;;;18.60;;
9665;SDS011;4871;52.004;5.924;2023-05-10T02:54:01;30.40;;;18.60;;
9665;SDS011;4871;52.004;5.924;2023-05-10T02:55:04;30.40;;;18.60;;
9665;SDS011;4871;52.004;5.924;2023-05-10T02:56:00;30.40;;;18.60;;
9665;SDS011;4871;52.004;5.924;2023-05-10T02:57:05;30.40;;;18.60;;
9665;SDS011;4871;52.004;5.924;2023-05-10T02:58:00;30.40;;;18.60;;
9665;SDS011;4871;52.004;5.924;2023-05-10T02:59:04;30.40;;;18.60;;
9665;SDS011;4871;52.004;5.924;2023-05-10T03:00:00;30.40;;;18.60;;
9665;SDS011;4871;52.004;5.924;2023-05-10T03:01:04;30.40;;;18.60;;
9665;SDS011;4871;52.004;5.924;2023-05-10T03:02:00;30.40;;;18.60;;
9665;SDS011;4871;52.004;5.924;2023-05-10T03:03:03;30.40;;;18.60;;
9665;SDS011;4871;52.004;5.924;2023-05-10T03:04:00;30.40;;;18.60;;
9665;SDS011;4871;52.004;5.924;2023-05-10T03:05:04;30.40;;;18.60;;
9665;SDS011;4871;52.004;5.924;2023-05-10T03:06:00;30.40;;;18.60;;
9665;SDS011;4871;52.004;5.924;2023-05-10T03:07:03;30.40;;;18.60;;
9665;SDS011;4871;52.004;5.924;2023-05-10T03:08:03;30.40;;;18.60;;
9665;SDS011;4871;52.004;5.924;2023-05-10T03:09:04;30.40;;;18.60;;
9665;SDS011;4871;52.004;5.924;2023-05-10T03:10:00;30.40;;;18.60;;
9665;SDS011;4871;52.004;5.924;2023-05-10T03:11:09;30.40;;;18.60;;
9665;SDS011;4871;52.004;5.924;2023-05-10T03:12:00;30.40;;;18.60;;
9665;SDS011;4871;52.004;5.924;2023-05-10T03:13:06;30.40;;;18.60;;
9665;SDS011;4871;52.004;5.924;2023-05-10T03:14:04;30.40;;;18.60;;
9665;SDS011;4871;52.004;5.924;2023-05-10T03:15:07;30.40;;;18.60;;
9665;SDS011;4871;52.004;5.924;2023-05-10T03:16:05;30.40;;;18.60;;
9665;SDS011;4871;52.004;5.924;2023-05-10T03:17:06;30.50;;;18.40;;
9665;SDS011;4871;52.004;5.924;2023-05-10T03:18:01;30.50;;;18.40;;
9665;SDS011;4871;52.004;5.924;2023-05-10T03:19:06;30.50;;;18.40;;
9665;SDS011;4871;52.004;5.924;2023-05-10T03:20:03;30.50;;;18.40;;
9665;SDS011;4871;52.004;5.924;2023-05-10T03:21:06;30.50;;;18.40;;
9665;SDS011;4871;52.004;5.924;2023-05-10T03:22:10;30.50;;;18.40;;
9665;SDS011;4871;52.004;5.924;2023-05-10T03:23:07;30.50;;;18.40;;
9665;SDS011;4871;52.004;5.924;2023-05-10T03:24:02;30.50;;;18.40;;
9665;SDS011;4871;52.004;5.924;2023-05-10T03:25:05;30.50;;;18.40;;
9665;SDS011;4871;52.004;5.924;2023-05-10T03:26:00;30.50;;;18.40;;
9665;SDS011;4871;52.004;5.924;2023-05-10T03:27:05;30.50;;;18.40;;
9665;SDS011;4871;52.004;5.924;2023-05-10T03:28:00;30.50;;;18.40;;
9665;SDS011;4871;52.004;5.924;2023-05-10T03:29:04;30.50;;;18.40;;
9665;SDS011;4871;52.004;5.924;2023-05-10T03:30:00;30.50;;;18.40;;
9665;SDS011;4871;52.004;5.924;2023-05-10T03:31:04;30.50;;;18.40;;
9665;SDS011;4871;52.004;5.924;2023-05-10T03:32:00;30.50;;;18.40;;
9665;SDS011;4871;52.004;5.924;2023-05-10T03:33:05;30.50;;;18.40;;
9665;SDS011;4871;52.004;5.924;2023-05-10T03:34:00;30.50;;;18.40;;
9665;SDS011;4871;52.004;5.924;2023-05-10T03:35:06;30.50;;;18.40;;
9665;SDS011;4871;52.004;5.924;2023-05-10T03:36:00;30.50;;;18.40;;
9665;SDS011;4871;52.004;5.924;2023-05-10T03:37:04;30.50;;;18.40;;
9665;SDS011;4871;52.004;5.924;2023-05-10T03:38:00;30.50;;;18.40;;
9665;SDS011;4871;52.004;5.924;2023-05-10T03:39:05;30.50;;;18.40;;
9665;SDS011;4871;52.004;5.924;2023-05-10T03:40:00;30.50;;;18.40;;
9665;SDS011;4871;52.004;5.924;2023-05-10T03:41:04;30.50;;;18.40;;
9665;SDS011;4871;52.004;5.924;2023-05-10T03:42:00;30.50;;;18.40;;
9665;SDS011;4871;52.004;5.924;2023-05-10T03:43:04;30.50;;;18.40;;
9665;SDS011;4871;52.004;5.924;2023-05-10T03:44:00;30.50;;;18.40;;
9665;SDS011;4871;52.004;5.924;2023-05-10T03:45:05;30.50;;;18.40;;
9665;SDS011;4871;52.004;5.924;2023-05-10T03:46:01;30.50;;;18.40;;
9665;SDS011;4871;52.004;5.924;2023-05-10T03:47:05;28.70;;;17.70;;
9665;SDS011;4871;52.004;5.924;2023-05-10T03:48:00;28.70;;;17.70;;
9665;SDS011;4871;52.004;5.924;2023-05-10T03:49:04;28.70;;;17.70;;
9665;SDS011;4871;52.004;5.924;2023-05-10T03:50:00;28.70;;;17.70;;
9665;SDS011;4871;52.004;5.924;2023-05-10T03:51:04;28.70;;;17.70;;
9665;SDS011;4871;52.004;5.924;2023-05-10T03:52:00;28.70;;;17.70;;
9665;SDS011;4871;52.004;5.924;2023-05-10T03:53:05;28.70;;;17.70;;
9665;SDS011;4871;52.004;5.924;2023-05-10T03:54:00;28.70;;;17.70;;
9665;SDS011;4871;52.004;5.924;2023-05-10T03:55:03;28.70;;;17.70;;
9665;SDS011;4871;52.004;5.924;2023-05-10T03:56:00;28.70;;;17.70;;
9665;SDS011;4871;52.004;5.924;2023-05-10T03:57:05;28.70;;;17.70;;
9665;SDS011;4871;52.004;5.924;2023-05-10T03:58:00;28.70;;;17.70;;
9665;SDS011;4871;52.004;5.924;2023-05-10T03:59:07;28.70;;;17.70;;
9665;SDS011;4871;52.004;5.924;2023-05-10T04:00:00;28.70;;;17.70;;
9665;SDS011;4871;52.004;5.924;2023-05-10T04:01:04;28.70;;;17.70;;
9665;SDS011;4871;52.004;5.924;2023-05-10T04:02:00;28.70;;;17.70;;
9665;SDS011;4871;52.004;5.924;2023-05-10T04:03:04;28.70;;;17.70;;
9665;SDS011;4871;52.004;5.924;2023-05-10T04:04:00;28.70;;;17.70;;
9665;SDS011;4871;52.004;5.924;2023-05-10T04:05:05;28.70;;;17.70;;
9665;SDS011;4871;52.004;5.924;2023-05-10T04:06:01;28.70;;;17.70;;
9665;SDS011;4871;52.004;5.924;2023-05-10T04:07:04;28.70;;;17.70;;
9665;SDS011;4871;52.004;5.924;2023-05-10T04:08:00;28.70;;;17.70;;
9665;SDS011;4871;52.004;5.924;2023-05-10T04:09:04;28.70;;;17.70;;
9665;SDS011;4871;52.004;5.924;2023-05-10T04:10:00;28.70;;;17.70;;
9665;SDS011;4871;52.004;5.924;2023-05-10T04:11:04;28.70;;;17.70;;
9665;SDS011;4871;52.004;5.924;2023-05-10T04:12:02;28.70;;;17.70;;
9665;SDS011;4871;52.004;5.924;2023-05-10T04:13:04;28.70;;;17.70;;
9665;SDS011;4871;52.004;5.924;2023-05-10T04:14:00;28.70;;;17.70;;
9665;SDS011;4871;52.004;5.924;2023-05-10T04:15:04;28.70;;;17.70;;
9665;SDS011;4871;52.004;5.924;2023-05-10T04:16:00;28.70;;;17.70;;
9665;SDS011;4871;52.004;5.924;2023-05-10T04:17:03;31.00;;;19.20;;
9665;SDS011;4871;52.004;5.924;2023-05-10T04:18:00;31.00;;;19.20;;
9665;SDS011;4871;52.004;5.924;2023-05-10T04:19:04;31.00;;;19.20;;
9665;SDS011;4871;52.004;5.924;2023-05-10T04:20:00;31.00;;;19.20;;
9665;SDS011;4871;52.004;5.924;2023-05-10T04:21:04;31.00;;;19.20;;
9665;SDS011;4871;52.004;5.924;2023-05-10T04:22:01;31.00;;;19.20;;
9665;SDS011;4871;52.004;5.924;2023-05-10T04:23:05;31.00;;;19.20;;
9665;SDS011;4871;52.004;5.924;2023-05-10T04:24:00;31.00;;;19.20;;
9665;SDS011;4871;52.004;5.924;2023-05-10T04:25:05;31.00;;;19.20;;
9665;SDS011;4871;52.004;5.924;2023-05-10T04:26:00;31.00;;;19.20;;
9665;SDS011;4871;52.004;5.924;2023-05-10T04:27:05;31.00;;;19.20;;
9665;SDS011;4871;52.004;5.924;2023-05-10T04:28:00;31.00;;;19.20;;
9665;SDS011;4871;52.004;5.924;2023-05-10T04:29:04;31.00;;;19.20;;
9665;SDS011;4871;52.004;5.924;2023-05-10T04:30:00;31.00;;;19.20;;
9665;SDS011;4871;52.004;5.924;2023-05-10T04:31:04;31.00;;;19.20;;
9665;SDS011;4871;52.004;5.924;2023-05-10T04:32:00;31.00;;;19.20;;
9665;SDS011;4871;52.004;5.924;2023-05-10T04:33:04;31.00;;;19.20;;
9665;SDS011;4871;52.004;5.924;2023-05-10T04:34:00;31.00;;;19.20;;
9665;SDS011;4871;52.004;5.924;2023-05-10T04:35:04;31.00;;;19.20;;
9665;SDS011;4871;52.004;5.924;2023-05-10T04:36:00;31.00;;;19.20;;
9665;SDS011;4871;52.004;5.924;2023-05-10T04:37:03;31.00;;;19.20;;
9665;SDS011;4871;52.004;5.924;2023-05-10T04:38:00;31.00;;;19.20;;
9665;SDS011;4871;52.004;5.924;2023-05-10T04:39:04;31.00;;;19.20;;
9665;SDS011;4871;52.004;5.924;2023-05-10T04:40:00;31.00;;;19.20;;
9665;SDS011;4871;52.004;5.924;2023-05-10T04:41:05;31.00;;;19.20;;
9665;SDS011;4871;52.004;5.924;2023-05-10T04:42:00;31.00;;;19.20;;
9665;SDS011;4871;52.004;5.924;2023-05-10T04:43:04;31.00;;;19.20;;
9665;SDS011;4871;52.004;5.924;2023-05-10T04:44:00;31.00;;;19.20;;
9665;SDS011;4871;52.004;5.924;2023-05-10T04:45:06;31.00;;;19.20;;
9665;SDS011;4871;52.004;5.924;2023-05-10T04:46:00;31.00;;;19.20;;
9665;SDS011;4871;52.004;5.924;2023-05-10T04:47:04;30.60;;;18.30;;
9665;SDS011;4871;52.004;5.924;2023-05-10T04:48:00;30.60;;;18.30;;
9665;SDS011;4871;52.004;5.924;2023-05-10T04:49:04;30.60;;;18.30;;
9665;SDS011;4871;52.004;5.924;2023-05-10T04:50:00;30.60;;;18.30;;
9665;SDS011;4871;52.004;5.924;2023-05-10T04:51:04;30.60;;;18.30;;
9665;SDS011;4871;52.004;5.924;2023-05-10T04:52:00;30.60;;;18.30;;
9665;SDS011;4871;52.004;5.924;2023-05-10T04:53:05;30.60;;;18.30;;
9665;SDS011;4871;52.004;5.924;2023-05-10T04:54:00;30.60;;;18.30;;
9665;SDS011;4871;52.004;5.924;2023-05-10T04:55:04;30.60;;;18.30;;
9665;SDS011;4871;52.004;5.924;2023-05-10T04:56:00;30.60;;;18.30;;
9665;SDS011;4871;52.004;5.924;2023-05-10T04:57:04;30.60;;;18.30;;
9665;SDS011;4871;52.004;5.924;2023-05-10T04:58:00;30.60;;;18.30;;
9665;SDS011;4871;52.004;5.924;2023-05-10T04:59:04;30.60;;;18.30;;
9665;SDS011;4871;52.004;5.924;2023-05-10T05:00:00;30.60;;;18.30;;
9665;SDS011;4871;52.004;5.924;2023-05-10T05:01:06;30.60;;;18.30;;
9665;SDS011;4871;52.004;5.924;2023-05-10T05:02:00;30.60;;;18.30;;
9665;SDS011;4871;52.004;5.924;2023-05-10T05:03:05;30.60;;;18.30;;
9665;SDS011;4871;52.004;5.924;2023-05-10T05:04:00;30.60;;;18.30;;
9665;SDS011;4871;52.004;5.924;2023-05-10T05:05:05;30.60;;;18.30;;
9665;SDS011;4871;52.004;5.924;2023-05-10T05:06:00;30.60;;;18.30;;
9665;SDS011;4871;52.004;5.924;2023-05-10T05:07:05;30.60;;;18.30;;
9665;SDS011;4871;52.004;5.924;2023-05-10T05:08:00;30.60;;;18.30;;
9665;SDS011;4871;52.004;5.924;2023-05-10T05:09:04;30.60;;;18.30;;
9665;SDS011;4871;52.004;5.924;2023-05-10T05:10:00;30.60;;;18.30;;
9665;SDS011;4871;52.004;5.924;2023-05-10T05:11:05;30.60;;;18.30;;
9665;SDS011;4871;52.004;5.924;2023-05-10T05:12:00;30.60;;;18.30;;
9665;SDS011;4871;52.004;5.924;2023-05-10T05:13:06;30.60;;;18.30;;
9665;SDS011;4871;52.004;5.924;2023-05-10T05:14:00;30.60;;;18.30;;
9665;SDS011;4871;52.004;5.924;2023-05-10T05:15:05;30.60;;;18.30;;
9665;SDS011;4871;52.004;5.924;2023-05-10T05:16:00;30.60;;;18.30;;
9665;SDS011;4871;52.004;5.924;2023-05-10T05:17:04;33.00;;;18.70;;
9665;SDS011;4871;52.004;5.924;2023-05-10T05:18:00;33.00;;;18.70;;
9665;SDS011;4871;52.004;5.924;2023-05-10T05:19:05;33.00;;;18.70;;
9665;SDS011;4871;52.004;5.924;2023-05-10T05:20:00;33.00;;;18.70;;
9665;SDS011;4871;52.004;5.924;2023-05-10T05:21:12;33.00;;;18.70;;
9665;SDS011;4871;52.004;5.924;2023-05-10T05:22:00;33.00;;;18.70;;
9665;SDS011;4871;52.004;5.924;2023-05-10T05:23:04;33.00;;;18.70;;
9665;SDS011;4871;52.004;5.924;2023-05-10T05:24:00;33.00;;;18.70;;
9665;SDS011;4871;52.004;5.924;2023-05-10T05:25:06;33.00;;;18.70;;
9665;SDS011;4871;52.004;5.924;2023-05-10T05:26:00;33.00;;;18.70;;
9665;SDS011;4871;52.004;5.924;2023-05-10T05:27:04;33.00;;;18.70;;
9665;SDS011;4871;52.004;5.924;2023-05-10T05:28:00;33.00;;;18.70;;
9665;SDS011;4871;52.004;5.924;2023-05-10T05:29:05;33.00;;;18.70;;
9665;SDS011;4871;52.004;5.924;2023-05-10T05:30:00;33.00;;;18.70;;
9665;SDS011;4871;52.004;5.924;2023-05-10T05:31:07;33.00;;;18.70;;
9665;SDS011;4871;52.004;5.924;2023-05-10T05:32:00;33.00;;;18.70;;
9665;SDS011;4871;52.004;5.924;2023-05-10T05:33:04;33.00;;;18.70;;
9665;SDS011;4871;52.004;5.924;2023-05-10T05:34:00;33.00;;;18.70;;
9665;SDS011;4871;52.004;5.924;2023-05-10T05:35:04;33.00;;;18.70;;
9665;SDS011;4871;52.004;5.924;2023-05-10T05:36:00;33.00;;;18.70;;
9665;SDS011;4871;52.004;5.924;2023-05-10T05:37:04;33.00;;;18.70;;
9665;SDS011;4871;52.004;5.924;2023-05-10T05:38:00;33.00;;;18.70;;
9665;SDS011;4871;52.004;5.924;2023-05-10T05:39:04;33.00;;;18.70;;
9665;SDS011;4871;52.004;5.924;2023-05-10T05:40:01;33.00;;;18.70;;
9665;SDS011;4871;52.004;5.924;2023-05-10T05:41:04;33.00;;;18.70;;
9665;SDS011;4871;52.004;5.924;2023-05-10T05:42:00;33.00;;;18.70;;
9665;SDS011;4871;52.004;5.924;2023-05-10T05:43:06;33.00;;;18.70;;
9665;SDS011;4871;52.004;5.924;2023-05-10T05:44:00;33.00;;;18.70;;
9665;SDS011;4871;52.004;5.924;2023-05-10T05:45:06;33.00;;;18.70;;
9665;SDS011;4871;52.004;5.924;2023-05-10T05:46:00;33.00;;;18.70;;
9665;SDS011;4871;52.004;5.924;2023-05-10T05:47:05;26.90;;;17.20;;
9665;SDS011;4871;52.004;5.924;2023-05-10T05:48:00;26.90;;;17.20;;
9665;SDS011;4871;52.004;5.924;2023-05-10T05:49:05;26.90;;;17.20;;
9665;SDS011;4871;52.004;5.924;2023-05-10T05:50:00;26.90;;;17.20;;
9665;SDS011;4871;52.004;5.924;2023-05-10T05:51:04;26.90;;;17.20;;
9665;SDS011;4871;52.004;5.924;2023-05-10T05:52:01;26.90;;;17.20;;
9665;SDS011;4871;52.004;5.924;2023-05-10T05:53:04;26.90;;;17.20;;
9665;SDS011;4871;52.004;5.924;2023-05-10T05:54:00;26.90;;;17.20;;
9665;SDS011;4871;52.004;5.924;2023-05-10T05:55:05;26.90;;;17.20;;
9665;SDS011;4871;52.004;5.924;2023-05-10T05:56:00;26.90;;;17.20;;
9665;SDS011;4871;52.004;5.924;2023-05-10T05:57:04;26.90;;;17.20;;
9665;SDS011;4871;52.004;5.924;2023-05-10T05:58:00;26.90;;;17.20;;
9665;SDS011;4871;52.004;5.924;2023-05-10T05:59:04;26.90;;;17.20;;
9665;SDS011;4871;52.004;5.924;2023-05-10T06:00:00;26.90;;;17.20;;
9665;SDS011;4871;52.004;5.924;2023-05-10T06:01:04;26.90;;;17.20;;
9665;SDS011;4871;52.004;5.924;2023-05-10T06:02:00;26.90;;;17.20;;
9665;SDS011;4871;52.004;5.924;2023-05-10T06:03:03;26.90;;;17.20;;
9665;SDS011;4871;52.004;5.924;2023-05-10T06:04:00;26.90;;;17.20;;